Terminal Aerodrome Forecast
Issued by NWS

Home | Current Version | Previous Version | Text Only | Print | Product List | Glossary Off
Versions: 1 2 3 4 5 6 7 8 9 10 11 12 13 14 15 16

000
FTUS43 KOAX 150410 AAB
TAFCDR
TAF AMD
KCDR 150410Z 1504/1524 03015KT P6SM -SN BKN010 BKN060
     FM150700 35010KT P6SM SCT006 BKN040
     FM151100 34009KT P6SM SCT040=

USA.gov is the U.S. government's official web portal to all federal, state and local government web resources and services.